createdAt,value
2023-03-23T15:58:51.000Z,1.58
2023-03-23T16:01:23.910Z,1.58
2023-03-23T16:03:57.363Z,1.50
2023-03-23T16:06:26.382Z,1.30
2023-03-23T16:08:56.616Z,1.40
2023-03-23T16:11:26.963Z,1.50
2023-03-23T16:13:53.542Z,1.50
2023-03-23T16:16:31.220Z,1.55
2023-03-23T16:18:57.817Z,1.23
2023-03-23T16:21:24.482Z,1.65
2023-03-23T16:23:50.947Z,1.80
2023-03-23T16:26:17.930Z,1.50
2023-03-23T16:28:44.571Z,1.65
2023-03-23T16:31:11.748Z,1.27
2023-03-23T16:33:38.545Z,1.25
2023-03-23T16:36:05.505Z,1.80
2023-03-23T16:38:32.028Z,1.50
2023-03-23T16:40:58.973Z,1.80
2023-03-23T16:43:26.054Z,1.40
2023-03-23T16:45:55.958Z,1.40
2023-03-23T16:48:22.961Z,1.70
2023-03-23T16:50:51.791Z,1.60
2023-03-23T16:53:19.127Z,1.50
2023-03-23T16:55:48.295Z,1.60
2023-03-23T16:58:17.714Z,1.60
2023-03-23T17:00:47.790Z,1.40
2023-03-23T17:03:16.380Z,1.73
2023-03-23T17:05:43.652Z,1.88
2023-03-23T17:08:10.656Z,1.73
2023-03-23T17:10:39.517Z,2.53
2023-03-23T17:13:06.348Z,1.60
2023-03-23T17:15:32.911Z,1.50
2023-03-23T17:17:59.658Z,1.73
2023-03-23T17:20:26.342Z,1.60
2023-03-23T17:22:53.132Z,1.80
2023-03-23T17:25:19.786Z,1.55
2023-03-23T17:27:46.515Z,1.40
2023-03-23T17:30:18.655Z,1.90
2023-03-23T17:32:47.402Z,1.52
2023-03-23T17:35:13.980Z,1.50
2023-03-23T17:37:40.783Z,1.48
2023-03-23T17:40:10.452Z,1.35
2023-03-23T17:42:37.590Z,1.40
2023-03-23T17:45:06.705Z,1.20
2023-03-23T17:47:34.085Z,1.35
2023-03-23T17:50:00.684Z,1.40
2023-03-23T17:55:28.261Z,1.08
2023-03-23T17:57:54.730Z,1.42
2023-03-23T18:00:24.661Z,1.58
2023-03-23T18:02:51.547Z,1.50
2023-03-23T18:05:18.361Z,1.40
2023-03-23T18:07:44.823Z,1.77
2023-03-23T18:10:12.988Z,1.75
2023-03-23T18:12:41.562Z,1.55
2023-03-23T18:15:09.257Z,1.70
2023-03-23T18:17:36.357Z,1.48
2023-03-23T18:20:04.886Z,1.52
2023-03-23T18:22:31.406Z,1.60
2023-03-23T18:24:58.743Z,1.70
2023-03-23T18:27:26.346Z,1.50
2023-03-23T18:29:53.519Z,1.50
2023-03-23T18:32:20.853Z,1.70
2023-03-23T18:34:48.795Z,1.48
2023-03-23T18:37:15.473Z,1.77
2023-03-23T18:39:41.989Z,1.80
2023-03-23T18:42:09.211Z,1.70
2023-03-23T18:44:35.862Z,1.70
2023-03-23T18:47:02.451Z,1.42
2023-03-23T18:49:30.106Z,1.58
2023-03-23T18:51:56.633Z,1.60
2023-03-23T18:54:23.081Z,1.80
2023-03-23T18:56:49.591Z,1.90
2023-03-23T18:59:16.238Z,2.05
2023-03-23T19:01:42.893Z,1.85
2023-03-23T19:04:13.631Z,1.92
2023-03-23T19:06:40.567Z,2.15
2023-03-23T19:09:07.584Z,2.10
2023-03-23T19:11:34.652Z,2.10
2023-03-23T19:14:03.315Z,1.80
2023-03-23T19:16:32.540Z,1.90
2023-03-23T19:19:04.105Z,2.03
2023-03-23T19:23:59.750Z,2.10
2023-03-23T19:26:34.763Z,2.50
2023-03-23T19:29:25.354Z,2.20
2023-03-23T19:31:51.620Z,2.25
2023-03-23T19:34:18.872Z,2.42
2023-03-23T19:36:54.378Z,2.20
2023-03-23T19:39:26.172Z,2.13
2023-03-23T19:41:52.889Z,2.42
2023-03-23T19:44:23.406Z,1.95
2023-03-23T19:46:50.206Z,2.25
2023-03-23T19:49:16.956Z,2.10
2023-03-23T19:51:43.552Z,2.30
2023-03-23T19:54:13.145Z,2.35
2023-03-23T19:56:43.419Z,2.30
2023-03-23T19:59:15.024Z,2.22
2023-03-23T20:01:55.887Z,2.20
2023-03-23T20:04:23.989Z,2.05
2023-03-23T20:06:52.868Z,2.30
2023-03-23T20:09:19.824Z,2.15
2023-03-23T20:11:46.964Z,2.28
2023-03-23T20:14:17.768Z,2.40
2023-03-23T20:16:47.426Z,2.30
2023-03-23T20:19:14.001Z,2.10
2023-03-23T20:21:43.310Z,2.22
2023-03-23T20:24:12.641Z,2.10
2023-03-23T20:26:41.781Z,2.15
2023-03-23T20:29:11.636Z,2.38
2023-03-23T20:32:07.546Z,2.50
2023-03-23T20:34:36.212Z,2.17
2023-03-23T20:37:03.708Z,2.50
2023-03-23T20:39:32.038Z,2.47
2023-03-23T20:42:05.991Z,2.00
2023-03-23T20:44:35.088Z,2.08
2023-03-23T20:47:05.970Z,2.60
2023-03-23T20:49:35.532Z,2.17
2023-03-23T20:52:02.514Z,1.70
2023-03-23T20:54:30.656Z,2.10
2023-03-23T20:56:58.651Z,2.38
2023-03-23T20:59:26.195Z,2.10
2023-03-23T21:01:52.794Z,2.58
2023-03-23T21:04:23.073Z,2.70
2023-03-23T21:06:49.846Z,2.95
2023-03-23T21:09:18.237Z,2.83
2023-03-23T21:11:45.930Z,2.65
2023-03-23T21:14:18.838Z,2.88
2023-03-23T21:16:45.540Z,4.18
2023-03-23T21:19:12.519Z,4.22
2023-03-23T21:21:55.234Z,3.92
2023-03-23T21:24:26.729Z,5.90
2023-03-23T21:26:54.380Z,4.38
2023-03-23T21:29:24.686Z,4.93
2023-03-23T21:32:01.086Z,4.97
2023-03-23T21:34:34.826Z,4.40
2023-03-23T21:37:06.137Z,4.18
2023-03-23T21:39:33.637Z,6.88
2023-03-23T21:42:01.777Z,8.32
2023-03-23T21:44:36.847Z,8.85
2023-03-23T21:50:10.633Z,7.53
2023-03-23T21:52:50.833Z,6.80
2023-03-23T21:56:07.241Z,5.97
2023-03-23T21:59:20.035Z,6.50
2023-03-23T22:02:27.584Z,7.00
2023-03-23T22:05:55.170Z,5.90
2023-03-23T22:15:52.354Z,4.95
2023-03-23T22:21:14.172Z,4.65
2023-03-23T22:23:44.569Z,5.15
2023-03-23T22:27:31.224Z,6.20
2023-03-23T22:32:24.386Z,5.90
2023-03-23T22:35:02.255Z,5.22
2023-03-23T22:37:31.319Z,4.88
2023-03-23T22:39:57.889Z,5.20
2023-03-23T22:42:32.748Z,5.90
2023-03-23T22:44:59.473Z,6.40
2023-03-23T22:47:29.126Z,5.47
2023-03-23T22:49:55.677Z,5.60
2023-03-23T22:52:22.232Z,6.10
2023-03-23T22:54:49.120Z,6.65
2023-03-23T22:57:16.058Z,6.72
2023-03-23T22:59:45.324Z,6.68
2023-03-23T23:02:12.110Z,6.85
2023-03-23T23:04:38.842Z,7.03
2023-03-23T23:07:12.967Z,6.65
2023-03-23T23:09:44.983Z,6.75
2023-03-23T23:12:14.192Z,6.25
2023-03-23T23:14:46.663Z,6.47
2023-03-23T23:17:13.400Z,6.95
2023-03-23T23:19:40.584Z,6.68
2023-03-23T23:22:18.462Z,6.68
2023-03-23T23:24:48.750Z,5.80
2023-03-23T23:27:16.400Z,6.10
2023-03-23T23:29:50.655Z,6.43
2023-03-23T23:32:20.017Z,6.70
2023-03-23T23:34:47.008Z,6.50
2023-03-23T23:37:13.847Z,5.38
2023-03-23T23:39:44.242Z,6.95
2023-03-23T23:42:13.575Z,5.85
2023-03-23T23:44:47.801Z,5.70
2023-03-23T23:47:14.714Z,6.07
2023-03-23T23:49:41.414Z,6.05
2023-03-23T23:52:08.718Z,6.07
2023-03-23T23:54:49.802Z,5.43
2023-03-23T23:57:16.749Z,5.95
2023-03-23T23:59:46.391Z,6.45
